sensor_id;sensor_type;location;lat;lon;timestamp;temperature;humidity
69359;HTU21D;56520;49.066;8.660;2022-11-20T00:02:18;4.10;97.99
69359;HTU21D;56520;49.066;8.660;2022-11-20T00:04:44;4.14;98.03
69359;HTU21D;56520;49.066;8.660;2022-11-20T00:07:09;4.18;98.05
69359;HTU21D;56520;49.066;8.660;2022-11-20T00:09:35;4.21;98.09
69359;HTU21D;56520;49.066;8.660;2022-11-20T00:12:00;4.24;98.11
69359;HTU21D;56520;49.066;8.660;2022-11-20T00:14:26;4.28;98.13
69359;HTU21D;56520;49.066;8.660;2022-11-20T00:16:51;4.30;98.12
69359;HTU21D;56520;49.066;8.660;2022-11-20T00:19:16;4.31;98.13
69359;HTU21D;56520;49.066;8.660;2022-11-20T00:21:42;4.32;98.16
69359;HTU21D;56520;49.066;8.660;2022-11-20T00:24:08;4.28;98.03
69359;HTU21D;56520;49.066;8.660;2022-11-20T00:26:33;4.23;98.00
69359;HTU21D;56520;49.066;8.660;2022-11-20T00:29:00;4.19;98.03
69359;HTU21D;56520;49.066;8.660;2022-11-20T00:31:27;4.18;98.05
69359;HTU21D;56520;49.066;8.660;2022-11-20T00:33:52;4.18;98.07
69359;HTU21D;56520;49.066;8.660;2022-11-20T00:36:20;4.16;98.09
69359;HTU21D;56520;49.066;8.660;2022-11-20T00:38:46;4.15;98.14
69359;HTU21D;56520;49.066;8.660;2022-11-20T00:41:14;4.18;98.22
69359;HTU21D;56520;49.066;8.660;2022-11-20T00:43:40;4.20;98.26
69359;HTU21D;56520;49.066;8.660;2022-11-20T00:46:08;4.27;98.30
69359;HTU21D;56520;49.066;8.660;2022-11-20T00:48:34;4.28;98.31
69359;HTU21D;56520;49.066;8.660;2022-11-20T00:50:59;4.31;98.32
69359;HTU21D;56520;49.066;8.660;2022-11-20T00:53:25;4.33;98.34
69359;HTU21D;56520;49.066;8.660;2022-11-20T00:55:54;4.35;98.33
69359;HTU21D;56520;49.066;8.660;2022-11-20T00:58:20;4.38;98.34
69359;HTU21D;56520;49.066;8.660;2022-11-20T01:00:46;4.42;98.35
69359;HTU21D;56520;49.066;8.660;2022-11-20T01:03:11;4.47;98.35
69359;HTU21D;56520;49.066;8.660;2022-11-20T01:05:36;4.51;98.39
69359;HTU21D;56520;49.066;8.660;2022-11-20T01:08:02;4.59;98.35
69359;HTU21D;56520;49.066;8.660;2022-11-20T01:10:27;4.64;98.33
69359;HTU21D;56520;49.066;8.660;2022-11-20T01:12:53;4.67;98.29
69359;HTU21D;56520;49.066;8.660;2022-11-20T01:15:38;4.71;98.27
69359;HTU21D;56520;49.066;8.660;2022-11-20T01:18:03;4.71;98.24
69359;HTU21D;56520;49.066;8.660;2022-11-20T01:20:33;4.73;98.24
69359;HTU21D;56520;49.066;8.660;2022-11-20T01:22:58;4.72;98.27
69359;HTU21D;56520;49.066;8.660;2022-11-20T01:25:24;4.76;98.29
69359;HTU21D;56520;49.066;8.660;2022-11-20T01:27:49;4.79;98.36
69359;HTU21D;56520;49.066;8.660;2022-11-20T01:30:15;4.89;98.26
69359;HTU21D;56520;49.066;8.660;2022-11-20T01:32:40;4.98;98.27
69359;HTU21D;56520;49.066;8.660;2022-11-20T01:35:06;5.01;98.33
69359;HTU21D;56520;49.066;8.660;2022-11-20T01:37:31;5.04;98.42
69359;HTU21D;56520;49.066;8.660;2022-11-20T01:39:56;5.06;98.48
69359;HTU21D;56520;49.066;8.660;2022-11-20T01:42:22;5.09;98.53
69359;HTU21D;56520;49.066;8.660;2022-11-20T01:48:09;5.21;98.70
69359;HTU21D;56520;49.066;8.660;2022-11-20T01:50:35;5.35;98.68
69359;HTU21D;56520;49.066;8.660;2022-11-20T01:53:02;5.36;98.81
69359;HTU21D;56520;49.066;8.660;2022-11-20T01:55:34;5.47;98.81
69359;HTU21D;56520;49.066;8.660;2022-11-20T01:58:02;5.51;98.87
69359;HTU21D;56520;49.066;8.660;2022-11-20T02:00:28;5.62;98.82
69359;HTU21D;56520;49.066;8.660;2022-11-20T02:02:58;5.69;98.77
69359;HTU21D;56520;49.066;8.660;2022-11-20T02:05:30;5.74;98.77
69359;HTU21D;56520;49.066;8.660;2022-11-20T02:07:59;5.76;98.78
69359;HTU21D;56520;49.066;8.660;2022-11-20T02:10:26;5.78;98.79
69359;HTU21D;56520;49.066;8.660;2022-11-20T02:12:52;5.81;98.76
69359;HTU21D;56520;49.066;8.660;2022-11-20T02:15:36;5.89;98.64
69359;HTU21D;56520;49.066;8.660;2022-11-20T02:18:02;6.01;98.35
69359;HTU21D;56520;49.066;8.660;2022-11-20T02:20:27;6.04;98.23
69359;HTU21D;56520;49.066;8.660;2022-11-20T02:22:58;6.14;97.86
69359;HTU21D;56520;49.066;8.660;2022-11-20T02:25:26;6.17;97.66
69359;HTU21D;56520;49.066;8.660;2022-11-20T02:27:52;6.20;97.55
69359;HTU21D;56520;49.066;8.660;2022-11-20T02:30:18;6.21;97.42
69359;HTU21D;56520;49.066;8.660;2022-11-20T02:32:43;6.30;97.09
69359;HTU21D;56520;49.066;8.660;2022-11-20T02:37:44;6.39;96.49
69359;HTU21D;56520;49.066;8.660;2022-11-20T02:40:11;6.45;95.89
69359;HTU21D;56520;49.066;8.660;2022-11-20T02:42:37;6.45;95.81
69359;HTU21D;56520;49.066;8.660;2022-11-20T02:45:04;6.50;95.56
69359;HTU21D;56520;49.066;8.660;2022-11-20T02:47:30;6.45;95.67
69359;HTU21D;56520;49.066;8.660;2022-11-20T02:49:55;6.51;95.45
69359;HTU21D;56520;49.066;8.660;2022-11-20T02:52:21;6.48;95.54
69359;HTU21D;56520;49.066;8.660;2022-11-20T02:54:46;6.56;94.99
69359;HTU21D;56520;49.066;8.660;2022-11-20T02:57:12;6.53;95.07
69359;HTU21D;56520;49.066;8.660;2022-11-20T02:59:37;6.54;95.15
69359;HTU21D;56520;49.066;8.660;2022-11-20T03:02:02;6.50;95.23
69359;HTU21D;56520;49.066;8.660;2022-11-20T03:04:28;6.67;94.15
69359;HTU21D;56520;49.066;8.660;2022-11-20T03:06:53;6.65;94.16
69359;HTU21D;56520;49.066;8.660;2022-11-20T03:09:18;6.57;94.54
69359;HTU21D;56520;49.066;8.660;2022-11-20T03:11:44;6.59;94.54
69359;HTU21D;56520;49.066;8.660;2022-11-20T03:14:09;6.58;94.49
69359;HTU21D;56520;49.066;8.660;2022-11-20T03:16:35;6.61;94.21
69359;HTU21D;56520;49.066;8.660;2022-11-20T03:19:00;6.61;94.13
69359;HTU21D;56520;49.066;8.660;2022-11-20T03:21:26;6.61;94.05
69359;HTU21D;56520;49.066;8.660;2022-11-20T03:23:53;6.74;93.39
69359;HTU21D;56520;49.066;8.660;2022-11-20T03:26:21;6.68;93.62
69359;HTU21D;56520;49.066;8.660;2022-11-20T03:28:52;6.60;94.18
69359;HTU21D;56520;49.066;8.660;2022-11-20T03:31:21;6.66;93.72
69359;HTU21D;56520;49.066;8.660;2022-11-20T03:33:47;6.69;93.30
69359;HTU21D;56520;49.066;8.660;2022-11-20T03:36:15;6.72;92.96
69359;HTU21D;56520;49.066;8.660;2022-11-20T03:38:41;6.68;92.96
69359;HTU21D;56520;49.066;8.660;2022-11-20T03:41:12;6.67;93.11
69359;HTU21D;56520;49.066;8.660;2022-11-20T03:43:38;6.67;92.88
69359;HTU21D;56520;49.066;8.660;2022-11-20T03:46:04;6.66;92.85
69359;HTU21D;56520;49.066;8.660;2022-11-20T03:48:30;6.65;92.69
69359;HTU21D;56520;49.066;8.660;2022-11-20T03:51:20;6.76;91.89
69359;HTU21D;56520;49.066;8.660;2022-11-20T03:53:47;6.75;91.69
69359;HTU21D;56520;49.066;8.660;2022-11-20T03:56:14;6.72;91.88
69359;HTU21D;56520;49.066;8.660;2022-11-20T03:58:40;6.65;92.28
69359;HTU21D;56520;49.066;8.660;2022-11-20T04:01:10;6.63;92.40
69359;HTU21D;56520;49.066;8.660;2022-11-20T04:03:37;6.61;92.41
69359;HTU21D;56520;49.066;8.660;2022-11-20T04:06:08;6.70;91.63
69359;HTU21D;56520;49.066;8.660;2022-11-20T04:08:34;6.94;89.82
69359;HTU21D;56520;49.066;8.660;2022-11-20T04:13:39;6.86;90.41
69359;HTU21D;56520;49.066;8.660;2022-11-20T04:16:05;6.84;90.69
69359;HTU21D;56520;49.066;8.660;2022-11-20T04:18:31;6.84;90.74
69359;HTU21D;56520;49.066;8.660;2022-11-20T04:20:59;6.87;90.62
69359;HTU21D;56520;49.066;8.660;2022-11-20T04:23:26;6.84;90.82
69359;HTU21D;56520;49.066;8.660;2022-11-20T04:25:51;6.94;89.95
69359;HTU21D;56520;49.066;8.660;2022-11-20T04:28:17;6.99;89.63
69359;HTU21D;56520;49.066;8.660;2022-11-20T04:30:42;7.00;89.60
69359;HTU21D;56520;49.066;8.660;2022-11-20T04:33:08;6.94;89.93
69359;HTU21D;56520;49.066;8.660;2022-11-20T04:35:34;6.93;89.91
69359;HTU21D;56520;49.066;8.660;2022-11-20T04:37:59;7.07;89.04
69359;HTU21D;56520;49.066;8.660;2022-11-20T04:40:25;7.10;88.73
69359;HTU21D;56520;49.066;8.660;2022-11-20T04:42:50;7.01;89.28
69359;HTU21D;56520;49.066;8.660;2022-11-20T04:45:16;7.11;88.13
69359;HTU21D;56520;49.066;8.660;2022-11-20T04:47:41;7.07;88.72
69359;HTU21D;56520;49.066;8.660;2022-11-20T04:50:07;7.09;88.64
69359;HTU21D;56520;49.066;8.660;2022-11-20T04:52:32;7.01;89.31
69359;HTU21D;56520;49.066;8.660;2022-11-20T04:54:58;7.08;88.86
69359;HTU21D;56520;49.066;8.660;2022-11-20T04:57:23;7.11;88.28
69359;HTU21D;56520;49.066;8.660;2022-11-20T04:59:48;7.13;88.20
69359;HTU21D;56520;49.066;8.660;2022-11-20T05:02:14;7.04;88.80
69359;HTU21D;56520;49.066;8.660;2022-11-20T05:04:39;7.12;88.02
69359;HTU21D;56520;49.066;8.660;2022-11-20T05:07:05;7.23;87.71
69359;HTU21D;56520;49.066;8.660;2022-11-20T05:09:30;7.14;88.07
69359;HTU21D;56520;49.066;8.660;2022-11-20T05:11:56;7.17;88.02
69359;HTU21D;56520;49.066;8.660;2022-11-20T05:14:21;7.23;87.44
69359;HTU21D;56520;49.066;8.660;2022-11-20T05:16:46;7.13;88.03
69359;HTU21D;56520;49.066;8.660;2022-11-20T05:19:12;7.05;88.16
69359;HTU21D;56520;49.066;8.660;2022-11-20T05:21:37;7.09;88.08
69359;HTU21D;56520;49.066;8.660;2022-11-20T05:24:03;7.00;88.56
69359;HTU21D;56520;49.066;8.660;2022-11-20T05:26:29;6.93;89.17
69359;HTU21D;56520;49.066;8.660;2022-11-20T05:28:55;7.00;88.67
69359;HTU21D;56520;49.066;8.660;2022-11-20T05:31:22;7.05;88.38
69359;HTU21D;56520;49.066;8.660;2022-11-20T05:33:48;7.15;87.70
69359;HTU21D;56520;49.066;8.660;2022-11-20T05:36:14;7.15;87.73
69359;HTU21D;56520;49.066;8.660;2022-11-20T05:38:40;7.07;88.28
69359;HTU21D;56520;49.066;8.660;2022-11-20T05:41:14;7.15;87.32
69359;HTU21D;56520;49.066;8.660;2022-11-20T05:43:41;7.23;86.91
69359;HTU21D;56520;49.066;8.660;2022-11-20T05:46:08;7.09;88.02
69359;HTU21D;56520;49.066;8.660;2022-11-20T05:48:34;7.07;88.13
69359;HTU21D;56520;49.066;8.660;2022-11-20T05:51:01;7.07;88.16
69359;HTU21D;56520;49.066;8.660;2022-11-20T05:53:27;7.07;88.28
69359;HTU21D;56520;49.066;8.660;2022-11-20T05:55:58;7.12;87.67
69359;HTU21D;56520;49.066;8.660;2022-11-20T05:58:23;7.22;86.84
69359;HTU21D;56520;49.066;8.660;2022-11-20T06:00:49;7.23;87.04
69359;HTU21D;56520;49.066;8.660;2022-11-20T06:03:14;7.23;87.01
69359;HTU21D;56520;49.066;8.660;2022-11-20T06:05:39;7.24;86.77
69359;HTU21D;56520;49.066;8.660;2022-11-20T06:08:05;7.20;87.06
69359;HTU21D;56520;49.066;8.660;2022-11-20T06:10:30;7.20;87.21
69359;HTU21D;56520;49.066;8.660;2022-11-20T06:12:57;7.28;86.52
69359;HTU21D;56520;49.066;8.660;2022-11-20T06:15:23;7.22;87.09
69359;HTU21D;56520;49.066;8.660;2022-11-20T06:17:54;7.20;87.10
69359;HTU21D;56520;49.066;8.660;2022-11-20T06:20:21;7.28;86.52
69359;HTU21D;56520;49.066;8.660;2022-11-20T06:22:46;7.23;87.02
69359;HTU21D;56520;49.066;8.660;2022-11-20T06:25:11;7.24;86.85
69359;HTU21D;56520;49.066;8.660;2022-11-20T06:27:37;7.30;86.35
69359;HTU21D;56520;49.066;8.660;2022-11-20T06:30:03;7.22;86.96
69359;HTU21D;56520;49.066;8.660;2022-11-20T06:32:28;7.11;88.16
69359;HTU21D;56520;49.066;8.660;2022-11-20T06:34:54;7.04;88.69
69359;HTU21D;56520;49.066;8.660;2022-11-20T06:37:19;6.97;89.09
69359;HTU21D;56520;49.066;8.660;2022-11-20T06:39:45;7.14;88.53
69359;HTU21D;56520;49.066;8.660;2022-11-20T06:42:10;7.05;88.59
69359;HTU21D;56520;49.066;8.660;2022-11-20T06:44:36;7.04;88.80
69359;HTU21D;56520;49.066;8.660;2022-11-20T06:47:01;6.98;89.45
69359;HTU21D;56520;49.066;8.660;2022-11-20T06:49:26;6.87;89.73
69359;HTU21D;56520;49.066;8.660;2022-11-20T06:51:52;6.85;90.20
69359;HTU21D;56520;49.066;8.660;2022-11-20T06:54:17;6.83;90.17
69359;HTU21D;56520;49.066;8.660;2022-11-20T06:56:48;6.96;89.26
69359;HTU21D;56520;49.066;8.660;2022-11-20T06:59:14;6.99;89.40
69359;HTU21D;56520;49.066;8.660;2022-11-20T07:01:39;6.93;89.53
69359;HTU21D;56520;49.066;8.660;2022-11-20T07:04:04;6.88;89.79
69359;HTU21D;56520;49.066;8.660;2022-11-20T07:06:30;6.97;89.15
69359;HTU21D;56520;49.066;8.660;2022-11-20T07:08:55;6.97;89.45
69359;HTU21D;56520;49.066;8.660;2022-11-20T07:11:21;6.88;90.17
69359;HTU21D;56520;49.066;8.660;2022-11-20T07:13:48;6.91;89.75
69359;HTU21D;56520;49.066;8.660;2022-11-20T07:16:17;6.98;89.25
69359;HTU21D;56520;49.066;8.660;2022-11-20T07:18:42;7.04;89.27
69359;HTU21D;56520;49.066;8.660;2022-11-20T07:21:09;7.00;89.44
69359;HTU21D;56520;49.066;8.660;2022-11-20T07:23:36;6.96;89.75
69359;HTU21D;56520;49.066;8.660;2022-11-20T07:26:09;6.93;90.14
69359;HTU21D;56520;49.066;8.660;2022-11-20T07:28:35;6.97;90.06
69359;HTU21D;56520;49.066;8.660;2022-11-20T07:31:01;6.96;89.94
69359;HTU21D;56520;49.066;8.660;2022-11-20T07:33:27;6.97;90.31
69359;HTU21D;56520;49.066;8.660;2022-11-20T07:35:53;6.96;90.34
69359;HTU21D;56520;49.066;8.660;2022-11-20T07:38:18;6.99;90.21
69359;HTU21D;56520;49.066;8.660;2022-11-20T07:40:43;7.07;89.89
69359;HTU21D;56520;49.066;8.660;2022-11-20T07:43:09;6.97;90.39
69359;HTU21D;56520;49.066;8.660;2022-11-20T07:45:34;6.98;90.58
69359;HTU21D;56520;49.066;8.660;2022-11-20T07:48:00;7.01;90.57
69359;HTU21D;56520;49.066;8.660;2022-11-20T07:50:25;7.04;90.67
69359;HTU21D;56520;49.066;8.660;2022-11-20T07:52:51;6.98;91.02
69359;HTU21D;56520;49.066;8.660;2022-11-20T07:55:17;7.01;91.50
69359;HTU21D;56520;49.066;8.660;2022-11-20T07:57:42;7.00;91.71
69359;HTU21D;56520;49.066;8.660;2022-11-20T08:00:10;7.04;91.50
69359;HTU21D;56520;49.066;8.660;2022-11-20T08:02:39;7.02;91.76
69359;HTU21D;56520;49.066;8.660;2022-11-20T08:05:05;7.04;91.88
69359;HTU21D;56520;49.066;8.660;2022-11-20T08:07:38;7.15;91.08
69359;HTU21D;56520;49.066;8.660;2022-11-20T08:10:04;7.10;91.33
69359;HTU21D;56520;49.066;8.660;2022-11-20T08:12:29;7.17;91.37
69359;HTU21D;56520;49.066;8.660;2022-11-20T08:15:13;7.13;92.02
69359;HTU21D;56520;49.066;8.660;2022-11-20T08:17:39;7.11;91.69
69359;HTU21D;56520;49.066;8.660;2022-11-20T08:20:04;7.10;92.15
69359;HTU21D;56520;49.066;8.660;2022-11-20T08:22:30;7.05;92.37
69359;HTU21D;56520;49.066;8.660;2022-11-20T08:24:55;6.96;92.71
69359;HTU21D;56520;49.066;8.660;2022-11-20T08:27:21;6.90;93.24
69359;HTU21D;56520;49.066;8.660;2022-11-20T08:29:46;6.93;93.44
69359;HTU21D;56520;49.066;8.660;2022-11-20T08:32:11;6.98;93.34
69359;HTU21D;56520;49.066;8.660;2022-11-20T08:34:37;6.98;93.25
69359;HTU21D;56520;49.066;8.660;2022-11-20T08:37:03;6.99;93.33
69359;HTU21D;56520;49.066;8.660;2022-11-20T08:39:28;7.01;93.40
69359;HTU21D;56520;49.066;8.660;2022-11-20T08:41:54;7.10;93.16
69359;HTU21D;56520;49.066;8.660;2022-11-20T08:44:19;7.14;93.03
69359;HTU21D;56520;49.066;8.660;2022-11-20T08:46:44;7.17;92.73
69359;HTU21D;56520;49.066;8.660;2022-11-20T08:49:12;7.25;92.42
69359;HTU21D;56520;49.066;8.660;2022-11-20T08:51:39;7.28;92.34
69359;HTU21D;56520;49.066;8.660;2022-11-20T08:54:05;7.35;92.54
69359;HTU21D;56520;49.066;8.660;2022-11-20T08:56:31;7.38;92.13
69359;HTU21D;56520;49.066;8.660;2022-11-20T08:58:56;7.46;91.98
69359;HTU21D;56520;49.066;8.660;2022-11-20T09:01:22;7.60;90.96
69359;HTU21D;56520;49.066;8.660;2022-11-20T09:03:48;7.64;90.40
69359;HTU21D;56520;49.066;8.660;2022-11-20T09:06:14;7.60;90.59
69359;HTU21D;56520;49.066;8.660;2022-11-20T09:08:40;7.58;90.70
69359;HTU21D;56520;49.066;8.660;2022-11-20T09:11:06;7.56;91.15
69359;HTU21D;56520;49.066;8.660;2022-11-20T09:13:32;7.55;91.13
69359;HTU21D;56520;49.066;8.660;2022-11-20T09:16:05;7.54;91.40
69359;HTU21D;56520;49.066;8.660;2022-11-20T09:18:32;7.57;91.21
69359;HTU21D;56520;49.066;8.660;2022-11-20T09:20:58;7.56;91.26
69359;HTU21D;56520;49.066;8.660;2022-11-20T09:23:24;7.58;91.13
69359;HTU21D;56520;49.066;8.660;2022-11-20T09:25:49;7.56;90.93
69359;HTU21D;56520;49.066;8.660;2022-11-20T09:28:15;7.48;92.02
69359;HTU21D;56520;49.066;8.660;2022-11-20T09:30:41;7.42;92.26
69359;HTU21D;56520;49.066;8.660;2022-11-20T09:33:06;7.48;91.68
69359;HTU21D;56520;49.066;8.660;2022-11-20T09:35:33;7.47;92.00
69359;HTU21D;56520;49.066;8.660;2022-11-20T09:37:58;7.45;92.30
69359;HTU21D;56520;49.066;8.660;2022-11-20T09:40:26;7.47;92.18
69359;HTU21D;56520;49.066;8.660;2022-11-20T09:46:17;7.59;92.27
69359;HTU21D;56520;49.066;8.660;2022-11-20T09:51:59;7.74;91.93
69359;HTU21D;56520;49.066;8.660;2022-11-20T09:54:31;7.87;90.86
69359;HTU21D;56520;49.066;8.660;2022-11-20T09:57:02;7.84;91.33
69359;HTU21D;56520;49.066;8.660;2022-11-20T09:59:43;7.88;90.95
69359;HTU21D;56520;49.066;8.660;2022-11-20T10:04:58;8.07;91.05
69359;HTU21D;56520;49.066;8.660;2022-11-20T10:10:04;8.24;89.50
69359;HTU21D;56520;49.066;8.660;2022-11-20T10:20:43;8.11;89.01
69359;HTU21D;56520;49.066;8.660;2022-11-20T10:26:19;7.89;90.38
69359;HTU21D;56520;49.066;8.660;2022-11-20T10:31:40;7.74;91.67
69359;HTU21D;56520;49.066;8.660;2022-11-20T10:34:44;7.65;91.98
69359;HTU21D;56520;49.066;8.660;2022-11-20T10:37:17;7.67;92.40
69359;HTU21D;56520;49.066;8.660;2022-11-20T10:40:04;7.73;92.45
69359;HTU21D;56520;49.066;8.660;2022-11-20T10:42:43;7.86;92.18
69359;HTU21D;56520;49.066;8.660;2022-11-20T10:45:34;8.04;91.69
69359;HTU21D;56520;49.066;8.660;2022-11-20T10:48:15;8.21;91.00
69359;HTU21D;56520;49.066;8.660;2022-11-20T11:01:44;9.86;86.68
69359;HTU21D;56520;49.066;8.660;2022-11-20T11:04:40;10.15;83.72
69359;HTU21D;56520;49.066;8.660;2022-11-20T11:07:10;9.99;82.47
69359;HTU21D;56520;49.066;8.660;2022-11-20T11:09:41;9.68;83.88
69359;HTU21D;56520;49.066;8.660;2022-11-20T11:12:09;9.53;83.75
69359;HTU21D;56520;49.066;8.660;2022-11-20T11:14:52;9.31;84.52
69359;HTU21D;56520;49.066;8.660;2022-11-20T11:22:54;9.16;85.19
69359;HTU21D;56520;49.066;8.660;2022-11-20T11:27:46;9.01;86.00
69359;HTU21D;56520;49.066;8.660;2022-11-20T11:30:14;8.98;85.97
69359;HTU21D;56520;49.066;8.660;2022-11-20T11:32:40;9.00;85.97
69359;HTU21D;56520;49.066;8.660;2022-11-20T11:35:22;9.03;86.23
69359;HTU21D;56520;49.066;8.660;2022-11-20T11:37:48;9.12;85.73
69359;HTU21D;56520;49.066;8.660;2022-11-20T11:40:15;9.36;83.81
69359;HTU21D;56520;49.066;8.660;2022-11-20T11:42:43;9.63;84.23
69359;HTU21D;56520;49.066;8.660;2022-11-20T11:45:14;9.95;83.91
69359;HTU21D;56520;49.066;8.660;2022-11-20T11:50:16;10.22;81.24
69359;HTU21D;56520;49.066;8.660;2022-11-20T11:55:15;10.67;81.11
69359;HTU21D;56520;49.066;8.660;2022-11-20T12:00:16;11.41;77.47
69359;HTU21D;56520;49.066;8.660;2022-11-20T12:05:43;11.55;73.54
69359;HTU21D;56520;49.066;8.660;2022-11-20T12:16:14;11.73;70.24
69359;HTU21D;56520;49.066;8.660;2022-11-20T12:18:41;11.36;71.24
69359;HTU21D;56520;49.066;8.660;2022-11-20T12:24:02;10.67;73.41
69359;HTU21D;56520;49.066;8.660;2022-11-20T12:26:49;10.45;73.86
69359;HTU21D;56520;49.066;8.660;2022-11-20T12:35:04;9.95;76.12
69359;HTU21D;56520;49.066;8.660;2022-11-20T12:49:02;9.26;78.56
69359;HTU21D;56520;49.066;8.660;2022-11-20T12:57:53;9.41;76.63
69359;HTU21D;56520;49.066;8.660;2022-11-20T13:00:09;9.60;74.03
69359;HTU21D;56520;49.066;8.660;2022-11-20T13:05:55;9.42;73.89
69359;HTU21D;56520;49.066;8.660;2022-11-20T13:08:27;9.35;72.64
69359;HTU21D;56520;49.066;8.660;2022-11-20T13:11:24;9.65;72.50
69359;HTU21D;56520;49.066;8.660;2022-11-20T13:14:02;9.88;70.39
69359;HTU21D;56520;49.066;8.660;2022-11-20T13:16:40;10.33;68.30
69359;HTU21D;56520;49.066;8.660;2022-11-20T13:19:12;10.60;67.30
69359;HTU21D;56520;49.066;8.660;2022-11-20T13:21:41;10.92;65.59
69359;HTU21D;56520;49.066;8.660;2022-11-20T13:24:20;11.22;64.83
69359;HTU21D;56520;49.066;8.660;2022-11-20T13:26:59;11.36;64.05
69359;HTU21D;56520;49.066;8.660;2022-11-20T13:29:24;11.44;63.98
69359;HTU21D;56520;49.066;8.660;2022-11-20T13:31:50;11.48;63.20
69359;HTU21D;56520;49.066;8.660;2022-11-20T13:34:26;11.51;62.10
69359;HTU21D;56520;49.066;8.660;2022-11-20T13:36:54;11.45;60.87
69359;HTU21D;56520;49.066;8.660;2022-11-20T13:39:32;11.04;63.44
69359;HTU21D;56520;49.066;8.660;2022-11-20T13:44:42;10.46;64.77
69359;HTU21D;56520;49.066;8.660;2022-11-20T13:47:22;10.30;65.74
69359;HTU21D;56520;49.066;8.660;2022-11-20T13:49:48;10.29;65.72
69359;HTU21D;56520;49.066;8.660;2022-11-20T13:55:21;10.38;65.41
69359;HTU21D;56520;49.066;8.660;2022-11-20T14:00:51;10.42;66.85
69359;HTU21D;56520;49.066;8.660;2022-11-20T14:03:25;10.54;67.07
69359;HTU21D;56520;49.066;8.660;2022-11-20T14:06:03;10.62;67.00
69359;HTU21D;56520;49.066;8.660;2022-11-20T14:08:36;10.69;65.75
69359;HTU21D;56520;49.066;8.660;2022-11-20T14:13:29;10.66;62.02
69359;HTU21D;56520;49.066;8.660;2022-11-20T14:15:58;10.54;60.83
69359;HTU21D;56520;49.066;8.660;2022-11-20T14:18:25;10.31;62.82
69359;HTU21D;56520;49.066;8.660;2022-11-20T14:20:51;10.10;62.95
69359;HTU21D;56520;49.066;8.660;2022-11-20T14:23:27;9.84;62.82
69359;HTU21D;56520;49.066;8.660;2022-11-20T14:25:53;9.62;64.47
69359;HTU21D;56520;49.066;8.660;2022-11-20T14:28:27;9.53;63.99
69359;HTU21D;56520;49.066;8.660;2022-11-20T14:30:54;9.45;64.46
69359;HTU21D;56520;49.066;8.660;2022-11-20T14:33:20;9.35;64.77
69359;HTU21D;56520;49.066;8.660;2022-11-20T14:35:52;9.30;65.08
69359;HTU21D;56520;49.066;8.660;2022-11-20T14:38:29;9.03;66.78
69359;HTU21D;56520;49.066;8.660;2022-11-20T14:41:07;8.85;67.16
69359;HTU21D;56520;49.066;8.660;2022-11-20T14:43:33;8.68;68.11
69359;HTU21D;56520;49.066;8.660;2022-11-20T14:46:07;8.65;67.56
69359;HTU21D;56520;49.066;8.660;2022-11-20T14:48:39;8.60;68.09
69359;HTU21D;56520;49.066;8.660;2022-11-20T14:51:04;8.66;67.10
69359;HTU21D;56520;49.066;8.660;2022-11-20T14:53:29;8.63;67.75
69359;HTU21D;56520;49.066;8.660;2022-11-20T14:56:00;8.57;68.10
69359;HTU21D;56520;49.066;8.660;2022-11-20T14:58:28;8.48;68.42
69359;HTU21D;56520;49.066;8.660;2022-11-20T15:01:05;8.34;69.08
69359;HTU21D;56520;49.066;8.660;2022-11-20T15:03:39;8.23;69.32
69359;HTU21D;56520;49.066;8.660;2022-11-20T15:06:06;8.28;68.39
69359;HTU21D;56520;49.066;8.660;2022-11-20T15:08:32;8.30;68.13
69359;HTU21D;56520;49.066;8.660;2022-11-20T15:10:58;8.24;68.51
69359;HTU21D;56520;49.066;8.660;2022-11-20T15:15:55;8.07;69.70
69359;HTU21D;56520;49.066;8.660;2022-11-20T15:20:50;7.94;69.67
69359;HTU21D;56520;49.066;8.660;2022-11-20T15:23:17;7.96;69.88
69359;HTU21D;56520;49.066;8.660;2022-11-20T15:25:44;7.96;69.52
69359;HTU21D;56520;49.066;8.660;2022-11-20T15:28:31;7.84;70.21
69359;HTU21D;56520;49.066;8.660;2022-11-20T15:30:57;7.78;70.35
69359;HTU21D;56520;49.066;8.660;2022-11-20T15:33:23;7.72;70.52
69359;HTU21D;56520;49.066;8.660;2022-11-20T15:35:48;7.76;69.86
69359;HTU21D;56520;49.066;8.660;2022-11-20T15:38:14;7.73;70.69
69359;HTU21D;56520;49.066;8.660;2022-11-20T15:40:39;7.67;70.81
69359;HTU21D;56520;49.066;8.660;2022-11-20T15:43:05;7.71;70.82
69359;HTU21D;56520;49.066;8.660;2022-11-20T15:45:41;7.67;71.26
69359;HTU21D;56520;49.066;8.660;2022-11-20T15:48:40;7.70;70.87
69359;HTU21D;56520;49.066;8.660;2022-11-20T15:51:31;7.77;70.60
69359;HTU21D;56520;49.066;8.660;2022-11-20T15:53:57;7.86;70.41
69359;HTU21D;56520;49.066;8.660;2022-11-20T15:56:23;7.89;70.58
69359;HTU21D;56520;49.066;8.660;2022-11-20T15:58:49;7.87;70.16
69359;HTU21D;56520;49.066;8.660;2022-11-20T16:01:17;7.93;70.48
69359;HTU21D;56520;49.066;8.660;2022-11-20T16:03:44;7.85;70.49
69359;HTU21D;56520;49.066;8.660;2022-11-20T16:06:09;7.85;70.45
69359;HTU21D;56520;49.066;8.660;2022-11-20T16:25:40;7.84;70.18
69359;HTU21D;56520;49.066;8.660;2022-11-20T16:28:05;7.81;70.03
69359;HTU21D;56520;49.066;8.660;2022-11-20T16:30:32;7.89;69.65
69359;HTU21D;56520;49.066;8.660;2022-11-20T16:32:59;7.86;70.12
69359;HTU21D;56520;49.066;8.660;2022-11-20T16:35:28;7.79;70.30
69359;HTU21D;56520;49.066;8.660;2022-11-20T16:37:55;7.85;69.76
69359;HTU21D;56520;49.066;8.660;2022-11-20T16:40:21;7.97;69.52
69359;HTU21D;56520;49.066;8.660;2022-11-20T16:42:47;7.86;70.17
69359;HTU21D;56520;49.066;8.660;2022-11-20T16:45:12;7.91;69.47
69359;HTU21D;56520;49.066;8.660;2022-11-20T16:47:38;7.85;70.28
69359;HTU21D;56520;49.066;8.660;2022-11-20T16:50:04;7.78;70.90
69359;HTU21D;56520;49.066;8.660;2022-11-20T16:52:30;7.72;71.03
69359;HTU21D;56520;49.066;8.660;2022-11-20T16:54:56;7.69;71.25
69359;HTU21D;56520;49.066;8.660;2022-11-20T16:57:22;7.82;70.16
69359;HTU21D;56520;49.066;8.660;2022-11-20T16:59:48;7.79;70.42
69359;HTU21D;56520;49.066;8.660;2022-11-20T17:02:14;7.76;70.90
69359;HTU21D;56520;49.066;8.660;2022-11-20T17:04:39;7.78;70.07
69359;HTU21D;56520;49.066;8.660;2022-11-20T17:07:06;7.79;70.52
69359;HTU21D;56520;49.066;8.660;2022-11-20T17:09:32;7.78;70.81
69359;HTU21D;56520;49.066;8.660;2022-11-20T17:11:57;7.73;71.10
69359;HTU21D;56520;49.066;8.660;2022-11-20T17:14:23;7.76;70.82
69359;HTU21D;56520;49.066;8.660;2022-11-20T17:16:48;7.74;71.15
69359;HTU21D;56520;49.066;8.660;2022-11-20T17:19:14;7.71;71.64
69359;HTU21D;56520;49.066;8.660;2022-11-20T17:21:40;7.65;71.51
69359;HTU21D;56520;49.066;8.660;2022-11-20T17:24:07;7.69;71.48
69359;HTU21D;56520;49.066;8.660;2022-11-20T17:26:34;7.64;72.16
69359;HTU21D;56520;49.066;8.660;2022-11-20T17:29:05;7.63;72.43
69359;HTU21D;56520;49.066;8.660;2022-11-20T17:31:32;7.61;73.15
69359;HTU21D;56520;49.066;8.660;2022-11-20T17:33:58;7.59;74.14
69359;HTU21D;56520;49.066;8.660;2022-11-20T17:36:25;7.60;74.34
69359;HTU21D;56520;49.066;8.660;2022-11-20T17:38:50;7.55;74.90
69359;HTU21D;56520;49.066;8.660;2022-11-20T17:41:20;7.52;75.69
69359;HTU21D;56520;49.066;8.660;2022-11-20T17:43:48;7.52;75.44
69359;HTU21D;56520;49.066;8.660;2022-11-20T17:46:15;7.50;76.10
69359;HTU21D;56520;49.066;8.660;2022-11-20T17:48:41;7.54;75.60
69359;HTU21D;56520;49.066;8.660;2022-11-20T17:51:31;7.59;75.31